createdAt,value
2022-09-12T00:01:54.219Z,15.69
2022-09-12T00:04:20.951Z,15.22
2022-09-12T00:06:49.904Z,15.57
2022-09-12T00:09:16.649Z,15.16
2022-09-12T00:11:47.703Z,15.38
2022-09-12T00:14:16.831Z,15.36
2022-09-12T00:16:44.019Z,15.39
2022-09-12T00:19:11.571Z,15.05
2022-09-12T00:21:39.482Z,15.11
2022-09-12T00:24:06.512Z,15.44
2022-09-12T00:26:33.160Z,15.40
2022-09-12T00:29:00.003Z,15.50
2022-09-12T00:31:27.239Z,15.50
2022-09-12T00:33:56.574Z,15.38
2022-09-12T00:36:24.548Z,15.42
2022-09-12T00:38:51.763Z,15.21
2022-09-12T00:41:19.834Z,15.31
2022-09-12T00:43:49.171Z,15.10
2022-09-12T00:46:52.847Z,14.99
2022-09-12T00:49:37.340Z,14.97
2022-09-12T00:52:11.421Z,15.12
2022-09-12T00:54:48.258Z,15.28
2022-09-12T00:57:15.632Z,15.30
2022-09-12T00:59:56.897Z,15.32
2022-09-12T01:02:23.568Z,15.49
2022-09-12T01:04:50.344Z,15.51
2022-09-12T01:07:16.904Z,15.22
2022-09-12T01:09:44.615Z,15.11
2022-09-12T01:12:13.388Z,15.11
2022-09-12T01:14:40.150Z,15.30
2022-09-12T01:17:06.805Z,15.12
2022-09-12T01:19:39.557Z,15.09
2022-09-12T01:22:31.014Z,15.00
2022-09-12T01:25:10.242Z,14.83
2022-09-12T01:28:46.270Z,14.70
2022-09-12T01:36:30.897Z,14.87
2022-09-12T01:39:38.988Z,14.61
2022-09-12T01:42:35.092Z,14.67
2022-09-12T01:45:14.412Z,14.96
2022-09-12T01:47:46.748Z,15.10
2022-09-12T01:50:22.983Z,14.82
2022-09-12T01:52:57.238Z,14.64
2022-09-12T01:55:36.958Z,14.45
2022-09-12T01:58:08.055Z,14.79
2022-09-12T02:00:39.328Z,14.80
2022-09-12T02:03:09.932Z,14.64
2022-09-12T02:05:40.466Z,14.93
2022-09-12T02:08:13.323Z,14.87
2022-09-12T02:11:03.736Z,14.80
2022-09-12T02:13:42.173Z,14.94
2022-09-12T02:16:35.441Z,14.93
2022-09-12T02:19:12.953Z,14.93
2022-09-12T02:21:40.403Z,15.01
2022-09-12T02:24:08.009Z,14.85
2022-09-12T02:26:38.394Z,14.84
2022-09-12T02:29:05.175Z,14.96
2022-09-12T02:31:31.698Z,14.88
2022-09-12T02:34:09.708Z,14.79
2022-09-12T02:36:46.266Z,14.90
2022-09-12T02:39:12.987Z,14.70
2022-09-12T02:41:39.683Z,14.77
2022-09-12T02:44:15.809Z,14.33
2022-09-12T02:46:49.043Z,14.12
2022-09-12T02:49:17.044Z,14.12
2022-09-12T02:51:46.130Z,14.40
2022-09-12T02:54:13.284Z,14.23
2022-09-12T02:56:44.095Z,14.04
2022-09-12T02:59:14.236Z,14.12
2022-09-12T03:01:50.086Z,14.21
2022-09-12T03:04:53.948Z,14.41
2022-09-12T03:07:38.519Z,14.50
2022-09-12T03:10:14.122Z,14.51
2022-09-12T03:12:52.769Z,14.39
2022-09-12T03:15:38.080Z,14.42
2022-09-12T03:31:21.527Z,14.50
2022-09-12T03:33:48.216Z,14.51
2022-09-12T03:36:25.523Z,14.58
2022-09-12T03:38:52.788Z,14.57
2022-09-12T03:41:19.840Z,14.32
2022-09-12T03:43:46.966Z,14.10
2022-09-12T03:46:13.770Z,13.96
2022-09-12T03:48:41.240Z,13.99
2022-09-12T03:51:09.517Z,13.86
2022-09-12T03:53:36.870Z,14.09
2022-09-12T03:56:08.661Z,14.00
2022-09-12T03:58:36.338Z,13.82
2022-09-12T04:01:12.431Z,13.78
2022-09-12T04:04:04.665Z,13.80
2022-09-12T04:06:42.865Z,13.69
2022-09-12T04:09:09.666Z,13.75
2022-09-12T04:11:36.273Z,13.87
2022-09-12T04:14:02.873Z,14.14
2022-09-12T04:16:29.842Z,14.38
2022-09-12T04:18:56.486Z,14.31
2022-09-12T04:21:24.561Z,14.36
2022-09-12T04:23:51.989Z,14.32
2022-09-12T04:26:19.389Z,14.39
2022-09-12T04:28:46.711Z,14.15
2022-09-12T04:31:18.448Z,14.37
2022-09-12T04:33:45.762Z,14.15
2022-09-12T04:36:16.520Z,14.15
2022-09-12T04:38:45.074Z,14.04
2022-09-12T04:41:23.168Z,13.95
2022-09-12T04:43:58.206Z,14.12
2022-09-12T04:46:25.990Z,14.11
2022-09-12T04:48:56.668Z,13.83
2022-09-12T04:51:30.228Z,13.68
2022-09-12T04:53:59.380Z,13.75
2022-09-12T04:56:26.728Z,14.01
2022-09-12T04:58:53.612Z,13.98
2022-09-12T05:01:21.920Z,14.13
2022-09-12T05:03:49.601Z,14.07
2022-09-12T05:06:19.288Z,14.20
2022-09-12T05:08:46.433Z,14.07
2022-09-12T05:11:15.566Z,14.28
2022-09-12T05:13:42.376Z,13.99
2022-09-12T05:16:11.891Z,14.12
2022-09-12T05:18:39.128Z,14.08
2022-09-12T05:21:08.063Z,14.22
2022-09-12T05:23:35.403Z,14.42
2022-09-12T05:26:03.271Z,14.51
2022-09-12T05:28:39.966Z,14.69
2022-09-12T05:31:11.025Z,14.69
2022-09-12T05:33:38.970Z,14.81
2022-09-12T05:36:07.563Z,14.97
2022-09-12T05:38:42.463Z,14.98
2022-09-12T05:41:20.837Z,14.88
2022-09-12T05:43:57.644Z,15.12
2022-09-12T05:46:26.366Z,14.92
2022-09-12T05:48:56.377Z,15.27
2022-09-12T05:51:28.634Z,15.39
2022-09-12T05:53:57.568Z,15.36
2022-09-12T05:56:26.490Z,15.53
2022-09-12T05:59:32.291Z,15.48
2022-09-12T06:02:06.973Z,15.45
2022-09-12T06:04:33.806Z,15.48
2022-09-12T06:07:00.644Z,15.52
2022-09-12T06:09:29.610Z,15.62
2022-09-12T06:11:56.462Z,15.66
2022-09-12T06:14:23.158Z,15.82
2022-09-12T06:16:50.606Z,15.80
2022-09-12T06:19:21.862Z,16.10
2022-09-12T06:21:49.701Z,16.15
2022-09-12T06:24:17.657Z,16.34
2022-09-12T06:26:47.418Z,16.41
2022-09-12T06:29:14.484Z,16.33
2022-09-12T06:31:42.724Z,16.63
2022-09-12T06:34:11.918Z,16.71
2022-09-12T06:36:44.617Z,16.81
2022-09-12T06:39:17.066Z,16.86
2022-09-12T06:41:44.587Z,16.93
2022-09-12T06:44:17.142Z,17.04
2022-09-12T06:46:44.404Z,17.21
2022-09-12T06:49:11.688Z,17.24
2022-09-12T06:51:38.532Z,17.13
2022-09-12T06:54:05.727Z,17.46
2022-09-12T06:56:32.537Z,17.44
2022-09-12T06:58:59.466Z,17.44
2022-09-12T07:01:31.369Z,17.58
2022-09-12T07:04:00.142Z,17.38
2022-09-12T07:06:31.862Z,17.50
2022-09-12T07:08:59.608Z,17.39
2022-09-12T07:11:34.639Z,17.50
2022-09-12T07:14:01.935Z,17.76
2022-09-12T07:16:29.340Z,17.76
2022-09-12T07:18:58.913Z,17.76
2022-09-12T07:21:25.948Z,17.64
2022-09-12T07:23:55.378Z,17.82
2022-09-12T07:26:22.174Z,17.63
2022-09-12T07:28:54.208Z,17.80
2022-09-12T07:31:23.301Z,17.90
2022-09-12T07:33:54.387Z,17.82
2022-09-12T07:36:23.773Z,17.93
2022-09-12T07:38:57.457Z,17.90
2022-09-12T07:41:29.639Z,17.79
2022-09-12T07:43:58.566Z,17.89
2022-09-12T07:46:26.572Z,17.94
2022-09-12T07:48:56.488Z,17.87
2022-09-12T07:51:24.330Z,18.10
2022-09-12T07:53:51.745Z,17.99
2022-09-12T07:56:19.961Z,18.04
2022-09-12T07:58:47.270Z,18.28
2022-09-12T08:01:13.919Z,18.12
2022-09-12T08:03:42.147Z,18.28
2022-09-12T08:06:11.362Z,18.03
2022-09-12T08:08:38.893Z,18.23
2022-09-12T08:11:08.261Z,18.23
2022-09-12T08:13:36.849Z,18.14
2022-09-12T08:16:07.104Z,18.10
2022-09-12T08:18:35.514Z,18.18
2022-09-12T08:21:04.771Z,17.90
2022-09-12T08:23:31.747Z,18.07
2022-09-12T08:26:05.315Z,18.08
2022-09-12T08:28:34.214Z,18.07
2022-09-12T08:31:02.058Z,18.28
2022-09-12T08:33:33.183Z,18.54
2022-09-12T08:36:27.261Z,18.66
2022-09-12T08:38:59.229Z,18.58
2022-09-12T08:41:32.928Z,18.65
2022-09-12T08:44:24.447Z,18.56
2022-09-12T08:47:28.230Z,18.54
2022-09-12T08:50:06.019Z,18.59
2022-09-12T08:52:42.076Z,18.47
2022-09-12T08:55:37.129Z,18.53
2022-09-12T08:58:20.204Z,18.60
2022-09-12T09:01:05.212Z,18.61
2022-09-12T09:03:55.301Z,18.77
2022-09-12T09:06:34.084Z,18.67
2022-09-12T09:09:38.656Z,18.79
2022-09-12T09:12:29.686Z,18.87
2022-09-12T09:15:14.752Z,19.09
2022-09-12T09:18:24.258Z,19.16
2022-09-12T09:21:03.752Z,19.07
2022-09-12T09:23:34.342Z,19.28
2022-09-12T09:26:11.504Z,19.30
2022-09-12T09:29:00.449Z,19.49
2022-09-12T09:31:32.908Z,19.74
2022-09-12T09:34:02.095Z,19.75
2022-09-12T09:37:30.333Z,20.11
2022-09-12T09:40:12.663Z,20.10
2022-09-12T09:43:04.430Z,20.52
2022-09-12T09:45:31.364Z,20.70
2022-09-12T09:48:13.248Z,20.75
2022-09-12T09:50:47.983Z,20.61
2022-09-12T09:53:39.002Z,20.61
2022-09-12T09:56:10.512Z,20.54
2022-09-12T09:58:37.894Z,20.61
2022-09-12T10:01:06.516Z,20.55
2022-09-12T10:03:35.824Z,20.51
2022-09-12T10:06:22.066Z,20.50
2022-09-12T10:08:50.292Z,20.65
2022-09-12T10:11:21.003Z,20.60
2022-09-12T10:13:53.483Z,20.54
2022-09-12T10:16:32.323Z,20.64
2022-09-12T10:19:04.035Z,20.73
2022-09-12T10:21:34.821Z,20.89
2022-09-12T10:24:22.679Z,21.08
2022-09-12T10:26:57.105Z,20.88
2022-09-12T10:29:32.406Z,20.89
2022-09-12T10:32:02.357Z,21.03
2022-09-12T10:34:42.439Z,21.18
2022-09-12T10:37:31.882Z,21.19
2022-09-12T10:40:00.215Z,20.85
2022-09-12T10:42:45.802Z,21.36
2022-09-12T10:45:32.156Z,21.88
2022-09-12T10:48:23.151Z,21.67
2022-09-12T10:50:49.873Z,21.75
2022-09-12T10:53:22.578Z,21.66
2022-09-12T10:56:04.084Z,21.97
2022-09-12T10:59:07.929Z,22.11
2022-09-12T11:02:12.806Z,22.19
2022-09-12T11:04:42.182Z,21.88
2022-09-12T11:07:30.036Z,21.71
2022-09-12T11:10:15.090Z,21.54
2022-09-12T11:12:48.330Z,21.35
2022-09-12T11:15:33.733Z,21.32
2022-09-12T11:18:34.889Z,21.59
2022-09-12T11:21:28.989Z,21.65
2022-09-12T11:24:20.660Z,21.49
2022-09-12T11:27:21.049Z,21.50
2022-09-12T11:29:54.901Z,21.53
2022-09-12T11:32:21.506Z,21.49
2022-09-12T11:35:18.216Z,21.57
2022-09-12T11:38:09.566Z,21.61
2022-09-12T11:40:50.810Z,21.58
2022-09-12T11:43:25.795Z,21.46
2022-09-12T11:45:53.030Z,21.60
2022-09-12T11:48:41.905Z,21.64
2022-09-12T11:51:18.944Z,21.62
2022-09-12T11:53:50.621Z,21.79
2022-09-12T11:56:18.826Z,21.90
2022-09-12T11:58:54.871Z,21.83
2022-09-12T12:01:43.966Z,21.83
2022-09-12T12:04:18.276Z,21.93
2022-09-12T12:07:02.550Z,21.78
2022-09-12T12:09:31.351Z,21.88
2022-09-12T12:11:58.520Z,21.83
2022-09-12T12:14:47.434Z,21.95
2022-09-12T12:17:27.554Z,22.26
2022-09-12T12:20:04.714Z,22.24
2022-09-12T12:22:32.530Z,22.21
2022-09-12T12:25:18.377Z,22.22
2022-09-12T12:27:56.809Z,22.22
2022-09-12T12:30:30.040Z,22.26
2022-09-12T12:33:10.467Z,22.12
2022-09-12T12:35:41.556Z,22.22
2022-09-12T12:38:37.232Z,22.18
2022-09-12T12:41:19.135Z,22.17
2022-09-12T12:43:50.804Z,22.49
2022-09-12T12:46:22.430Z,22.43
2022-09-12T12:49:07.344Z,22.48
2022-09-12T12:51:40.958Z,22.36
2022-09-12T12:54:27.174Z,22.41
2022-09-12T12:57:20.316Z,22.54
2022-09-12T12:59:59.506Z,22.49
2022-09-12T13:02:41.011Z,22.85
2022-09-12T13:05:18.761Z,22.62
2022-09-12T13:07:48.122Z,22.58
2022-09-12T13:10:28.897Z,22.75
2022-09-12T13:13:03.350Z,22.82
2022-09-12T13:15:36.122Z,22.88
2022-09-12T13:18:08.201Z,22.97
2022-09-12T13:20:43.745Z,22.76
2022-09-12T13:23:22.959Z,22.98
2022-09-12T13:25:55.095Z,23.10
2022-09-12T13:28:22.287Z,22.97
2022-09-12T13:31:11.836Z,23.20
2022-09-12T13:33:48.624Z,23.27
2022-09-12T13:36:21.530Z,23.28
2022-09-12T13:39:13.147Z,23.23
2022-09-12T13:41:53.428Z,23.16
2022-09-12T13:44:21.277Z,23.27
2022-09-12T13:46:47.982Z,23.31
2022-09-12T13:49:37.154Z,23.25
2022-09-12T13:52:18.071Z,23.26
2022-09-12T13:54:47.267Z,23.22
2022-09-12T13:57:38.039Z,23.34
2022-09-12T14:00:20.325Z,23.44
2022-09-12T14:02:48.266Z,23.64
2022-09-12T14:05:24.596Z,23.53
2022-09-12T14:07:56.421Z,23.52
2022-09-12T14:10:33.076Z,23.55
2022-09-12T14:13:11.500Z,23.56
2022-09-12T14:15:41.280Z,23.52
2022-09-12T14:18:21.183Z,23.56
2022-09-12T14:20:48.357Z,23.54
2022-09-12T14:23:29.453Z,23.67
2022-09-12T14:26:02.682Z,23.61
2022-09-12T14:28:30.268Z,23.56
2022-09-12T14:31:18.386Z,23.54
2022-09-12T14:33:55.075Z,23.51
2022-09-12T14:36:29.483Z,23.53
2022-09-12T14:39:07.977Z,23.47
2022-09-12T14:41:37.820Z,23.43
2022-09-12T14:44:15.528Z,23.56
2022-09-12T14:46:42.716Z,23.46
2022-09-12T14:49:19.730Z,23.62
2022-09-12T14:51:55.813Z,23.49
2022-09-12T14:54:42.595Z,23.57
2022-09-12T14:57:33.013Z,23.82
2022-09-12T15:00:29.119Z,23.79
2022-09-12T15:02:55.893Z,23.80
2022-09-12T15:05:25.009Z,23.93
2022-09-12T15:07:53.685Z,23.99
2022-09-12T15:10:25.194Z,23.71
2022-09-12T15:13:10.931Z,23.68
2022-09-12T15:15:39.231Z,23.65
2022-09-12T15:18:06.945Z,23.57
2022-09-12T15:20:36.413Z,23.60
2022-09-12T15:23:03.184Z,23.50
2022-09-12T15:25:30.000Z,23.66
2022-09-12T15:27:56.765Z,23.73
2022-09-12T15:30:24.980Z,23.62
2022-09-12T15:32:51.642Z,23.52
2022-09-12T15:35:21.574Z,23.48
2022-09-12T15:37:49.023Z,23.55
2022-09-12T15:40:16.519Z,23.68
2022-09-12T15:42:43.700Z,23.66
2022-09-12T15:45:22.842Z,23.67
2022-09-12T15:47:49.564Z,23.70
2022-09-12T15:50:16.297Z,23.79
2022-09-12T15:52:43.018Z,23.91
2022-09-12T15:55:19.429Z,23.86
2022-09-12T15:57:46.285Z,23.84
2022-09-12T16:00:13.980Z,23.98
2022-09-12T16:02:40.959Z,23.92
2022-09-12T16:05:14.372Z,23.90
2022-09-12T16:07:41.055Z,23.90
2022-09-12T16:10:08.562Z,23.88
2022-09-12T16:12:35.642Z,23.84
2022-09-12T16:15:02.588Z,24.00
2022-09-12T16:17:29.513Z,24.06
2022-09-12T16:19:58.672Z,24.11
2022-09-12T16:22:25.370Z,24.46
2022-09-12T16:24:52.061Z,24.50
2022-09-12T16:27:19.642Z,24.66
2022-09-12T16:29:46.465Z,24.72
2022-09-12T16:32:13.219Z,24.59
2022-09-12T16:34:39.966Z,24.67
2022-09-12T16:37:06.673Z,24.68
2022-09-12T16:39:34.479Z,24.75
2022-09-12T16:42:01.130Z,24.62
2022-09-12T16:44:27.787Z,24.79
2022-09-12T16:46:54.508Z,24.64
2022-09-12T16:49:21.784Z,24.71
2022-09-12T16:51:48.490Z,24.80
2022-09-12T16:54:15.773Z,24.74
2022-09-12T16:56:42.453Z,24.77
2022-09-12T16:59:16.248Z,24.66
2022-09-12T17:01:43.409Z,24.58
2022-09-12T17:04:10.684Z,24.59
2022-09-12T17:06:37.415Z,24.55
2022-09-12T17:09:04.971Z,24.55
2022-09-12T17:11:34.934Z,24.57
2022-09-12T17:14:09.064Z,24.50
2022-09-12T17:16:38.971Z,24.49
2022-09-12T17:19:07.888Z,24.52
2022-09-12T17:21:35.501Z,24.46
2022-09-12T17:24:03.335Z,24.34
2022-09-12T17:26:30.056Z,24.03
2022-09-12T17:28:56.860Z,23.90
2022-09-12T17:31:23.577Z,23.77
2022-09-12T17:33:50.257Z,23.58
2022-09-12T17:36:17.995Z,23.50
2022-09-12T17:38:45.797Z,23.46
2022-09-12T17:41:20.106Z,23.29
2022-09-12T17:43:50.863Z,23.09
2022-09-12T17:46:21.414Z,23.03
2022-09-12T17:48:56.135Z,22.95
2022-09-12T17:51:25.013Z,22.70
2022-09-12T17:54:11.844Z,22.58
2022-09-12T17:56:39.185Z,22.61
2022-09-12T17:59:07.424Z,22.44
2022-09-12T18:01:52.570Z,22.31
2022-09-12T18:04:20.146Z,22.33
2022-09-12T18:06:50.260Z,22.18
2022-09-12T18:09:19.742Z,22.07
2022-09-12T18:11:48.135Z,22.02
2022-09-12T18:14:15.215Z,21.95
2022-09-12T18:16:42.462Z,21.84
2022-09-12T18:19:11.021Z,21.76
2022-09-12T18:21:38.274Z,21.66
2022-09-12T18:24:05.513Z,21.57
2022-09-12T18:26:32.763Z,21.49
2022-09-12T18:28:59.657Z,21.54
2022-09-12T18:31:29.823Z,21.54
2022-09-12T18:33:59.672Z,21.37
2022-09-12T18:36:26.765Z,21.24
2022-09-12T18:38:53.317Z,21.22
2022-09-12T18:41:22.135Z,21.25
2022-09-12T18:43:49.278Z,21.12
2022-09-12T18:46:18.240Z,21.11
2022-09-12T18:48:45.901Z,21.11
2022-09-12T18:51:20.981Z,21.17
2022-09-12T18:54:06.284Z,21.15
2022-09-12T18:56:35.932Z,21.20
2022-09-12T18:59:04.998Z,21.23
2022-09-12T19:01:33.752Z,21.25
2022-09-12T19:04:07.404Z,21.29
2022-09-12T19:06:36.791Z,21.38
2022-09-12T19:09:07.601Z,21.32
2022-09-12T19:11:36.691Z,21.21
2022-09-12T19:14:03.570Z,21.10
2022-09-12T19:16:30.886Z,20.85
2022-09-12T19:18:58.525Z,20.90
2022-09-12T19:21:29.902Z,20.96
2022-09-12T19:23:59.882Z,20.91
2022-09-12T19:26:26.649Z,20.94
2022-09-12T19:28:54.531Z,20.88
2022-09-12T19:31:22.023Z,20.74
2022-09-12T19:33:49.361Z,20.83
2022-09-12T19:36:41.266Z,20.65
2022-09-12T19:39:06.040Z,20.66
2022-09-12T19:41:33.175Z,20.65
2022-09-12T19:44:00.391Z,20.62
2022-09-12T19:46:27.289Z,20.67
2022-09-12T19:48:54.311Z,20.71
2022-09-12T19:51:21.768Z,20.41
2022-09-12T19:53:50.207Z,20.51
2022-09-12T19:56:17.236Z,20.61
2022-09-12T19:58:46.160Z,20.50
2022-09-12T20:01:18.124Z,20.43
2022-09-12T20:03:45.583Z,20.50
2022-09-12T20:06:13.909Z,20.43
2022-09-12T20:08:42.326Z,20.33
2022-09-12T20:11:09.931Z,20.30
2022-09-12T20:13:36.661Z,20.32
2022-09-12T20:16:21.841Z,20.27
2022-09-12T20:18:56.431Z,20.22
2022-09-12T20:21:31.422Z,20.05
2022-09-12T20:24:11.542Z,20.22
2022-09-12T20:26:38.563Z,20.30
2022-09-12T20:29:06.467Z,20.20
2022-09-12T20:31:34.016Z,20.21
2022-09-12T20:34:00.983Z,20.28
2022-09-12T20:36:28.078Z,20.23
2022-09-12T20:38:57.519Z,20.16
2022-09-12T20:41:25.376Z,20.08
2022-09-12T20:43:53.026Z,19.78
2022-09-12T20:46:22.230Z,19.78
2022-09-12T20:48:51.554Z,19.97
2022-09-12T20:51:19.356Z,19.89
2022-09-12T20:53:50.442Z,19.93
2022-09-12T20:56:17.208Z,19.67
2022-09-12T20:58:44.787Z,19.69
2022-09-12T21:01:13.245Z,19.61
2022-09-12T21:03:43.554Z,19.64
2022-09-12T21:06:12.491Z,19.67
2022-09-12T21:08:39.632Z,19.73
2022-09-12T21:11:06.934Z,19.67
2022-09-12T21:13:33.697Z,19.69
2022-09-12T21:16:01.962Z,19.69
2022-09-12T21:18:29.297Z,19.62
2022-09-12T21:20:56.531Z,19.61
2022-09-12T21:23:24.201Z,19.64
2022-09-12T21:25:52.714Z,19.67
2022-09-12T21:28:21.407Z,19.55
2022-09-12T21:30:48.989Z,19.56
2022-09-12T21:33:15.680Z,19.56
2022-09-12T21:35:42.357Z,19.53
2022-09-12T21:38:09.350Z,19.52
2022-09-12T21:40:36.357Z,19.56
2022-09-12T21:43:04.318Z,19.63
2022-09-12T21:45:33.561Z,19.52
2022-09-12T21:48:00.669Z,19.53
2022-09-12T21:50:27.420Z,19.53
2022-09-12T21:52:54.244Z,19.48
2022-09-12T21:55:26.236Z,19.45
2022-09-12T21:57:56.201Z,19.43
2022-09-12T22:00:25.553Z,19.41
2022-09-12T22:02:55.153Z,19.46
2022-09-12T22:05:24.570Z,19.47
2022-09-12T22:07:51.470Z,19.48
2022-09-12T22:10:18.373Z,19.45
2022-09-12T22:12:46.515Z,19.48
2022-09-12T22:15:38.800Z,19.43
2022-09-12T22:18:00.678Z,19.45
2022-09-12T22:20:27.225Z,19.41
2022-09-12T22:23:12.581Z,19.36
2022-09-12T22:25:39.506Z,19.25
2022-09-12T22:28:07.290Z,19.29
2022-09-12T22:30:34.083Z,19.28
2022-09-12T22:33:00.636Z,19.21
2022-09-12T22:35:27.504Z,19.14
2022-09-12T22:37:54.223Z,19.14
2022-09-12T22:40:20.765Z,19.21
2022-09-12T22:42:47.602Z,19.23
2022-09-12T22:45:14.334Z,19.19
2022-09-12T22:47:41.315Z,19.12
2022-09-12T22:50:08.268Z,19.16
2022-09-12T22:52:34.879Z,18.98
2022-09-12T22:55:01.447Z,19.17
2022-09-12T22:57:28.008Z,19.10
2022-09-12T22:59:54.577Z,19.07
2022-09-12T23:02:21.418Z,19.23
2022-09-12T23:04:48.552Z,19.30
2022-09-12T23:07:15.720Z,19.06
2022-09-12T23:09:42.559Z,19.12
2022-09-12T23:12:09.675Z,19.04
2022-09-12T23:14:36.259Z,18.98
2022-09-12T23:17:03.212Z,18.82
2022-09-12T23:19:29.796Z,18.84
2022-09-12T23:21:56.420Z,18.81
2022-09-12T23:24:23.039Z,18.68
2022-09-12T23:26:49.586Z,18.63
2022-09-12T23:29:16.410Z,18.72
2022-09-12T23:31:43.036Z,18.62
2022-09-12T23:34:10.127Z,18.58
2022-09-12T23:36:36.752Z,18.72
2022-09-12T23:39:03.999Z,18.69
2022-09-12T23:41:31.074Z,18.62
2022-09-12T23:43:57.916Z,18.67
2022-09-12T23:46:24.490Z,18.71
2022-09-12T23:48:53.120Z,18.65
2022-09-12T23:51:21.650Z,18.68
2022-09-12T23:53:48.446Z,18.69
2022-09-12T23:56:15.038Z,18.61
2022-09-12T23:58:41.759Z,18.65
